sensor_id;sensor_type;location;lat;lon;timestamp;P1;durP1;ratioP1;P2;durP2;ratioP2
9838;SDS011;4958;48.150;11.506;2023-02-15T00:01:51;15.43;;;11.63;;
9838;SDS011;4958;48.150;11.506;2023-02-15T00:04:19;16.67;;;12.37;;
9838;SDS011;4958;48.150;11.506;2023-02-15T00:06:49;14.73;;;11.37;;
9838;SDS011;4958;48.150;11.506;2023-02-15T00:09:16;14.37;;;10.67;;
9838;SDS011;4958;48.150;11.506;2023-02-15T00:11:42;15.13;;;11.77;;
9838;SDS011;4958;48.150;11.506;2023-02-15T00:14:15;13.30;;;10.67;;
9838;SDS011;4958;48.150;11.506;2023-02-15T00:16:44;14.60;;;11.80;;
9838;SDS011;4958;48.150;11.506;2023-02-15T00:19:11;79.40;;;13.23;;
9838;SDS011;4958;48.150;11.506;2023-02-15T00:21:40;25.10;;;11.77;;
9838;SDS011;4958;48.150;11.506;2023-02-15T00:24:09;57.10;;;13.30;;
9838;SDS011;4958;48.150;11.506;2023-02-15T00:26:37;15.53;;;11.37;;
9838;SDS011;4958;48.150;11.506;2023-02-15T00:29:05;12.50;;;10.23;;
9838;SDS011;4958;48.150;11.506;2023-02-15T00:31:32;12.37;;;10.63;;
9838;SDS011;4958;48.150;11.506;2023-02-15T00:34:00;15.13;;;11.33;;
9838;SDS011;4958;48.150;11.506;2023-02-15T00:36:27;12.77;;;10.50;;
9838;SDS011;4958;48.150;11.506;2023-02-15T00:38:54;12.80;;;11.03;;
9838;SDS011;4958;48.150;11.506;2023-02-15T00:41:21;12.30;;;9.93;;
9838;SDS011;4958;48.150;11.506;2023-02-15T00:43:48;63.80;;;13.10;;
9838;SDS011;4958;48.150;11.506;2023-02-15T00:46:14;33.20;;;11.77;;
9838;SDS011;4958;48.150;11.506;2023-02-15T00:48:41;12.37;;;10.60;;
9838;SDS011;4958;48.150;11.506;2023-02-15T00:51:07;12.43;;;9.87;;
9838;SDS011;4958;48.150;11.506;2023-02-15T00:53:33;15.27;;;10.20;;
9838;SDS011;4958;48.150;11.506;2023-02-15T00:56:00;20.57;;;10.10;;
9838;SDS011;4958;48.150;11.506;2023-02-15T00:58:28;10.23;;;9.13;;
9838;SDS011;4958;48.150;11.506;2023-02-15T01:00:54;14.63;;;9.63;;
9838;SDS011;4958;48.150;11.506;2023-02-15T01:03:21;11.00;;;9.60;;
9838;SDS011;4958;48.150;11.506;2023-02-15T01:05:48;11.80;;;9.57;;
9838;SDS011;4958;48.150;11.506;2023-02-15T01:08:15;27.77;;;9.90;;
9838;SDS011;4958;48.150;11.506;2023-02-15T01:10:41;10.33;;;9.07;;
9838;SDS011;4958;48.150;11.506;2023-02-15T01:13:09;11.10;;;9.37;;
9838;SDS011;4958;48.150;11.506;2023-02-15T01:15:36;10.67;;;9.07;;
9838;SDS011;4958;48.150;11.506;2023-02-15T01:18:03;14.57;;;8.60;;
9838;SDS011;4958;48.150;11.506;2023-02-15T01:20:33;10.43;;;8.77;;
9838;SDS011;4958;48.150;11.506;2023-02-15T01:23:01;10.27;;;8.73;;
9838;SDS011;4958;48.150;11.506;2023-02-15T01:25:28;9.73;;;8.73;;
9838;SDS011;4958;48.150;11.506;2023-02-15T01:27:54;10.07;;;9.07;;
9838;SDS011;4958;48.150;11.506;2023-02-15T01:30:21;10.80;;;8.50;;
9838;SDS011;4958;48.150;11.506;2023-02-15T01:32:48;26.57;;;9.00;;
9838;SDS011;4958;48.150;11.506;2023-02-15T01:35:15;13.00;;;8.97;;
9838;SDS011;4958;48.150;11.506;2023-02-15T01:37:41;72.73;;;11.30;;
9838;SDS011;4958;48.150;11.506;2023-02-15T01:40:09;10.60;;;8.67;;
9838;SDS011;4958;48.150;11.506;2023-02-15T01:42:39;10.17;;;8.93;;
9838;SDS011;4958;48.150;11.506;2023-02-15T01:45:12;10.40;;;8.70;;
9838;SDS011;4958;48.150;11.506;2023-02-15T01:47:46;9.27;;;8.37;;
9838;SDS011;4958;48.150;11.506;2023-02-15T01:50:19;11.73;;;8.80;;
9838;SDS011;4958;48.150;11.506;2023-02-15T01:52:50;27.10;;;10.77;;
9838;SDS011;4958;48.150;11.506;2023-02-15T01:55:20;15.23;;;9.40;;
9838;SDS011;4958;48.150;11.506;2023-02-15T01:57:50;10.97;;;8.80;;
9838;SDS011;4958;48.150;11.506;2023-02-15T02:00:17;9.20;;;8.30;;
9838;SDS011;4958;48.150;11.506;2023-02-15T02:02:45;10.13;;;8.73;;
9838;SDS011;4958;48.150;11.506;2023-02-15T02:05:18;9.47;;;8.30;;
9838;SDS011;4958;48.150;11.506;2023-02-15T02:07:45;26.67;;;9.70;;
9838;SDS011;4958;48.150;11.506;2023-02-15T02:10:13;17.93;;;8.97;;
9838;SDS011;4958;48.150;11.506;2023-02-15T02:12:42;9.60;;;8.47;;
9838;SDS011;4958;48.150;11.506;2023-02-15T02:15:11;14.20;;;8.50;;
9838;SDS011;4958;48.150;11.506;2023-02-15T02:17:42;14.67;;;8.73;;
9838;SDS011;4958;48.150;11.506;2023-02-15T02:20:27;9.37;;;8.10;;
9838;SDS011;4958;48.150;11.506;2023-02-15T02:23:08;17.50;;;8.93;;
9838;SDS011;4958;48.150;11.506;2023-02-15T02:25:59;10.07;;;8.23;;
9838;SDS011;4958;48.150;11.506;2023-02-15T02:29:05;19.30;;;9.40;;
9838;SDS011;4958;48.150;11.506;2023-02-15T02:31:58;10.47;;;8.80;;
9838;SDS011;4958;48.150;11.506;2023-02-15T02:34:45;11.40;;;8.83;;
9838;SDS011;4958;48.150;11.506;2023-02-15T02:37:19;17.37;;;9.23;;
9838;SDS011;4958;48.150;11.506;2023-02-15T02:39:52;16.43;;;10.37;;
9838;SDS011;4958;48.150;11.506;2023-02-15T02:42:27;40.63;;;10.80;;
9838;SDS011;4958;48.150;11.506;2023-02-15T02:45:02;10.20;;;8.83;;
9838;SDS011;4958;48.150;11.506;2023-02-15T02:47:32;9.90;;;8.70;;
9838;SDS011;4958;48.150;11.506;2023-02-15T02:50:05;12.37;;;9.33;;
9838;SDS011;4958;48.150;11.506;2023-02-15T02:52:40;10.23;;;8.77;;
9838;SDS011;4958;48.150;11.506;2023-02-15T02:55:10;9.50;;;8.47;;
9838;SDS011;4958;48.150;11.506;2023-02-15T02:57:43;9.40;;;8.40;;
9838;SDS011;4958;48.150;11.506;2023-02-15T03:00:16;9.60;;;8.60;;
9838;SDS011;4958;48.150;11.506;2023-02-15T03:02:44;9.07;;;8.20;;
9838;SDS011;4958;48.150;11.506;2023-02-15T03:05:18;10.97;;;9.60;;
9838;SDS011;4958;48.150;11.506;2023-02-15T03:07:49;46.23;;;10.70;;
9838;SDS011;4958;48.150;11.506;2023-02-15T03:10:18;78.77;;;11.93;;
9838;SDS011;4958;48.150;11.506;2023-02-15T03:12:48;34.43;;;10.37;;
9838;SDS011;4958;48.150;11.506;2023-02-15T03:15:18;38.10;;;10.20;;
9838;SDS011;4958;48.150;11.506;2023-02-15T03:17:47;9.63;;;8.33;;
9838;SDS011;4958;48.150;11.506;2023-02-15T03:20:18;9.57;;;8.17;;
9838;SDS011;4958;48.150;11.506;2023-02-15T03:22:50;26.60;;;10.33;;
9838;SDS011;4958;48.150;11.506;2023-02-15T03:25:21;10.87;;;8.90;;
9838;SDS011;4958;48.150;11.506;2023-02-15T03:27:51;10.10;;;8.67;;
9838;SDS011;4958;48.150;11.506;2023-02-15T03:30:21;15.50;;;9.20;;
9838;SDS011;4958;48.150;11.506;2023-02-15T03:32:49;13.13;;;9.07;;
9838;SDS011;4958;48.150;11.506;2023-02-15T03:35:19;11.00;;;9.17;;
9838;SDS011;4958;48.150;11.506;2023-02-15T03:37:48;9.83;;;8.00;;
9838;SDS011;4958;48.150;11.506;2023-02-15T03:40:21;9.57;;;8.43;;
9838;SDS011;4958;48.150;11.506;2023-02-15T03:43:10;9.20;;;7.90;;
9838;SDS011;4958;48.150;11.506;2023-02-15T03:45:43;9.60;;;8.63;;
9838;SDS011;4958;48.150;11.506;2023-02-15T03:48:19;8.83;;;7.93;;
9838;SDS011;4958;48.150;11.506;2023-02-15T03:50:51;9.73;;;8.40;;
9838;SDS011;4958;48.150;11.506;2023-02-15T03:53:40;9.73;;;8.53;;
9838;SDS011;4958;48.150;11.506;2023-02-15T03:56:08;9.50;;;8.37;;
9838;SDS011;4958;48.150;11.506;2023-02-15T03:58:34;9.70;;;8.63;;
9838;SDS011;4958;48.150;11.506;2023-02-15T04:01:18;10.43;;;8.87;;
9838;SDS011;4958;48.150;11.506;2023-02-15T04:04:10;10.30;;;8.80;;
9838;SDS011;4958;48.150;11.506;2023-02-15T04:06:42;9.33;;;8.30;;
9838;SDS011;4958;48.150;11.506;2023-02-15T04:09:08;10.50;;;9.27;;
9838;SDS011;4958;48.150;11.506;2023-02-15T04:11:52;33.97;;;9.93;;
9838;SDS011;4958;48.150;11.506;2023-02-15T04:14:19;10.07;;;8.77;;
9838;SDS011;4958;48.150;11.506;2023-02-15T04:17:04;10.60;;;9.33;;
9838;SDS011;4958;48.150;11.506;2023-02-15T04:19:31;11.50;;;8.60;;
9838;SDS011;4958;48.150;11.506;2023-02-15T04:22:16;9.03;;;8.07;;
9838;SDS011;4958;48.150;11.506;2023-02-15T04:25:00;9.70;;;8.60;;
9838;SDS011;4958;48.150;11.506;2023-02-15T04:27:36;9.90;;;8.27;;
9838;SDS011;4958;48.150;11.506;2023-02-15T04:30:04;10.57;;;8.40;;
9838;SDS011;4958;48.150;11.506;2023-02-15T04:32:31;9.77;;;8.10;;
9838;SDS011;4958;48.150;11.506;2023-02-15T04:34:57;11.93;;;8.73;;
9838;SDS011;4958;48.150;11.506;2023-02-15T04:37:25;19.77;;;9.33;;
9838;SDS011;4958;48.150;11.506;2023-02-15T04:39:52;12.50;;;9.33;;
9838;SDS011;4958;48.150;11.506;2023-02-15T04:42:19;11.30;;;9.03;;
9838;SDS011;4958;48.150;11.506;2023-02-15T04:44:46;17.77;;;9.57;;
9838;SDS011;4958;48.150;11.506;2023-02-15T04:47:12;15.40;;;9.57;;
9838;SDS011;4958;48.150;11.506;2023-02-15T04:49:38;10.73;;;9.00;;
9838;SDS011;4958;48.150;11.506;2023-02-15T04:52:05;10.97;;;9.50;;
9838;SDS011;4958;48.150;11.506;2023-02-15T04:54:33;21.60;;;9.30;;
9838;SDS011;4958;48.150;11.506;2023-02-15T04:56:59;19.47;;;9.30;;
9838;SDS011;4958;48.150;11.506;2023-02-15T04:59:25;19.80;;;9.37;;
9838;SDS011;4958;48.150;11.506;2023-02-15T05:01:52;10.57;;;9.03;;
9838;SDS011;4958;48.150;11.506;2023-02-15T05:04:18;10.70;;;9.17;;
9838;SDS011;4958;48.150;11.506;2023-02-15T05:06:45;10.40;;;9.30;;
9838;SDS011;4958;48.150;11.506;2023-02-15T05:09:11;11.10;;;9.40;;
9838;SDS011;4958;48.150;11.506;2023-02-15T05:11:40;10.27;;;8.87;;
9838;SDS011;4958;48.150;11.506;2023-02-15T05:14:06;9.63;;;8.63;;
9838;SDS011;4958;48.150;11.506;2023-02-15T05:16:33;13.13;;;9.03;;
9838;SDS011;4958;48.150;11.506;2023-02-15T05:18:59;10.43;;;9.10;;
9838;SDS011;4958;48.150;11.506;2023-02-15T05:21:26;10.27;;;9.07;;
9838;SDS011;4958;48.150;11.506;2023-02-15T05:23:52;9.73;;;8.73;;
9838;SDS011;4958;48.150;11.506;2023-02-15T05:26:19;10.47;;;8.37;;
9838;SDS011;4958;48.150;11.506;2023-02-15T05:29:05;9.47;;;8.47;;
9838;SDS011;4958;48.150;11.506;2023-02-15T05:31:33;10.10;;;8.00;;
9838;SDS011;4958;48.150;11.506;2023-02-15T05:33:59;9.10;;;7.57;;
9838;SDS011;4958;48.150;11.506;2023-02-15T05:36:26;9.43;;;7.87;;
9838;SDS011;4958;48.150;11.506;2023-02-15T05:38:53;16.47;;;8.53;;
9838;SDS011;4958;48.150;11.506;2023-02-15T05:41:19;12.23;;;8.20;;
9838;SDS011;4958;48.150;11.506;2023-02-15T05:43:46;8.67;;;7.77;;
9838;SDS011;4958;48.150;11.506;2023-02-15T05:46:13;16.30;;;8.10;;
9838;SDS011;4958;48.150;11.506;2023-02-15T05:48:40;21.00;;;8.20;;
9838;SDS011;4958;48.150;11.506;2023-02-15T05:51:07;38.37;;;9.43;;
9838;SDS011;4958;48.150;11.506;2023-02-15T05:53:35;36.83;;;9.57;;
9838;SDS011;4958;48.150;11.506;2023-02-15T05:56:04;9.23;;;7.83;;
9838;SDS011;4958;48.150;11.506;2023-02-15T05:58:33;10.00;;;8.20;;
9838;SDS011;4958;48.150;11.506;2023-02-15T06:01:06;9.03;;;8.10;;
9838;SDS011;4958;48.150;11.506;2023-02-15T06:03:35;13.27;;;7.70;;
9838;SDS011;4958;48.150;11.506;2023-02-15T06:06:01;17.33;;;7.53;;
9838;SDS011;4958;48.150;11.506;2023-02-15T06:08:29;9.03;;;8.13;;
9838;SDS011;4958;48.150;11.506;2023-02-15T06:10:55;8.73;;;7.83;;
9838;SDS011;4958;48.150;11.506;2023-02-15T06:13:22;9.37;;;8.37;;
9838;SDS011;4958;48.150;11.506;2023-02-15T06:15:48;9.80;;;8.53;;
9838;SDS011;4958;48.150;11.506;2023-02-15T06:18:15;11.17;;;8.30;;
9838;SDS011;4958;48.150;11.506;2023-02-15T06:20:42;18.70;;;9.13;;
9838;SDS011;4958;48.150;11.506;2023-02-15T06:23:11;10.27;;;9.10;;
9838;SDS011;4958;48.150;11.506;2023-02-15T06:25:37;11.83;;;8.60;;
9838;SDS011;4958;48.150;11.506;2023-02-15T06:28:04;19.27;;;11.77;;
9838;SDS011;4958;48.150;11.506;2023-02-15T06:30:30;23.43;;;13.00;;
9838;SDS011;4958;48.150;11.506;2023-02-15T06:32:59;31.17;;;21.13;;
9838;SDS011;4958;48.150;11.506;2023-02-15T06:35:25;23.03;;;16.40;;
9838;SDS011;4958;48.150;11.506;2023-02-15T06:37:53;24.40;;;14.37;;
9838;SDS011;4958;48.150;11.506;2023-02-15T06:40:19;14.00;;;10.80;;
9838;SDS011;4958;48.150;11.506;2023-02-15T06:42:46;15.30;;;9.90;;
9838;SDS011;4958;48.150;11.506;2023-02-15T06:45:13;11.63;;;9.07;;
9838;SDS011;4958;48.150;11.506;2023-02-15T06:47:39;11.07;;;8.37;;
9838;SDS011;4958;48.150;11.506;2023-02-15T06:50:06;11.33;;;9.07;;
9838;SDS011;4958;48.150;11.506;2023-02-15T06:52:35;11.47;;;9.40;;
9838;SDS011;4958;48.150;11.506;2023-02-15T06:55:03;10.50;;;8.90;;
9838;SDS011;4958;48.150;11.506;2023-02-15T06:57:30;11.73;;;9.87;;
9838;SDS011;4958;48.150;11.506;2023-02-15T06:59:58;10.97;;;9.27;;
9838;SDS011;4958;48.150;11.506;2023-02-15T07:02:24;10.67;;;9.00;;
9838;SDS011;4958;48.150;11.506;2023-02-15T07:04:50;10.77;;;9.17;;
9838;SDS011;4958;48.150;11.506;2023-02-15T07:07:17;10.60;;;9.17;;
9838;SDS011;4958;48.150;11.506;2023-02-15T07:09:43;10.53;;;8.97;;
9838;SDS011;4958;48.150;11.506;2023-02-15T07:12:11;14.33;;;9.83;;
9838;SDS011;4958;48.150;11.506;2023-02-15T07:14:57;14.30;;;9.00;;
9838;SDS011;4958;48.150;11.506;2023-02-15T07:17:24;11.23;;;9.83;;
9838;SDS011;4958;48.150;11.506;2023-02-15T07:19:53;12.23;;;9.60;;
9838;SDS011;4958;48.150;11.506;2023-02-15T07:22:19;11.07;;;9.63;;
9838;SDS011;4958;48.150;11.506;2023-02-15T07:24:46;24.90;;;10.33;;
9838;SDS011;4958;48.150;11.506;2023-02-15T07:27:15;30.77;;;11.50;;
9838;SDS011;4958;48.150;11.506;2023-02-15T07:29:41;19.60;;;10.73;;
9838;SDS011;4958;48.150;11.506;2023-02-15T07:32:08;15.77;;;10.60;;
9838;SDS011;4958;48.150;11.506;2023-02-15T07:34:34;23.40;;;12.47;;
9838;SDS011;4958;48.150;11.506;2023-02-15T07:37:00;20.00;;;12.50;;
9838;SDS011;4958;48.150;11.506;2023-02-15T07:39:27;13.20;;;11.30;;
9838;SDS011;4958;48.150;11.506;2023-02-15T07:41:53;16.33;;;11.70;;
9838;SDS011;4958;48.150;11.506;2023-02-15T07:44:21;13.83;;;10.73;;
9838;SDS011;4958;48.150;11.506;2023-02-15T07:46:47;14.37;;;11.50;;
9838;SDS011;4958;48.150;11.506;2023-02-15T07:49:14;12.50;;;11.10;;
9838;SDS011;4958;48.150;11.506;2023-02-15T07:51:40;15.43;;;11.77;;
9838;SDS011;4958;48.150;11.506;2023-02-15T07:54:07;17.53;;;10.37;;
9838;SDS011;4958;48.150;11.506;2023-02-15T07:56:33;17.33;;;11.17;;
9838;SDS011;4958;48.150;11.506;2023-02-15T07:59:00;12.70;;;10.67;;
9838;SDS011;4958;48.150;11.506;2023-02-15T08:01:30;13.43;;;10.93;;
9838;SDS011;4958;48.150;11.506;2023-02-15T08:03:58;12.53;;;10.50;;
9838;SDS011;4958;48.150;11.506;2023-02-15T08:06:25;14.60;;;11.07;;
9838;SDS011;4958;48.150;11.506;2023-02-15T08:08:53;13.40;;;10.67;;
9838;SDS011;4958;48.150;11.506;2023-02-15T08:11:20;13.00;;;10.83;;
9838;SDS011;4958;48.150;11.506;2023-02-15T08:13:54;14.97;;;11.80;;
9838;SDS011;4958;48.150;11.506;2023-02-15T08:16:24;12.47;;;10.47;;
9838;SDS011;4958;48.150;11.506;2023-02-15T08:18:56;14.90;;;11.07;;
9838;SDS011;4958;48.150;11.506;2023-02-15T08:21:25;12.50;;;10.40;;
9838;SDS011;4958;48.150;11.506;2023-02-15T08:23:53;15.40;;;11.40;;
9838;SDS011;4958;48.150;11.506;2023-02-15T08:26:19;12.03;;;10.73;;
9838;SDS011;4958;48.150;11.506;2023-02-15T08:28:46;11.53;;;10.30;;
9838;SDS011;4958;48.150;11.506;2023-02-15T08:31:14;12.60;;;10.93;;
9838;SDS011;4958;48.150;11.506;2023-02-15T08:33:41;13.47;;;11.50;;
9838;SDS011;4958;48.150;11.506;2023-02-15T08:36:11;13.27;;;10.97;;
9838;SDS011;4958;48.150;11.506;2023-02-15T08:38:38;15.33;;;12.37;;
9838;SDS011;4958;48.150;11.506;2023-02-15T08:41:09;14.43;;;11.60;;
9838;SDS011;4958;48.150;11.506;2023-02-15T08:43:36;15.70;;;12.50;;
9838;SDS011;4958;48.150;11.506;2023-02-15T08:46:04;14.10;;;12.23;;
9838;SDS011;4958;48.150;11.506;2023-02-15T08:48:30;14.80;;;11.70;;
9838;SDS011;4958;48.150;11.506;2023-02-15T08:50:57;16.63;;;12.03;;
9838;SDS011;4958;48.150;11.506;2023-02-15T08:53:25;15.73;;;12.40;;
9838;SDS011;4958;48.150;11.506;2023-02-15T08:55:54;14.07;;;11.70;;
9838;SDS011;4958;48.150;11.506;2023-02-15T08:58:21;16.27;;;12.30;;
9838;SDS011;4958;48.150;11.506;2023-02-15T09:00:48;13.17;;;11.73;;
9838;SDS011;4958;48.150;11.506;2023-02-15T09:03:14;16.23;;;12.13;;
9838;SDS011;4958;48.150;11.506;2023-02-15T09:05:41;13.83;;;11.77;;
9838;SDS011;4958;48.150;11.506;2023-02-15T09:08:07;12.63;;;10.73;;
9838;SDS011;4958;48.150;11.506;2023-02-15T09:10:35;15.20;;;11.93;;
9838;SDS011;4958;48.150;11.506;2023-02-15T09:13:01;17.50;;;12.10;;
9838;SDS011;4958;48.150;11.506;2023-02-15T09:15:28;14.90;;;11.50;;
9838;SDS011;4958;48.150;11.506;2023-02-15T09:17:54;17.47;;;11.87;;
9838;SDS011;4958;48.150;11.506;2023-02-15T09:20:21;13.27;;;11.87;;
9838;SDS011;4958;48.150;11.506;2023-02-15T09:22:47;14.47;;;11.80;;
9838;SDS011;4958;48.150;11.506;2023-02-15T09:25:14;12.97;;;11.57;;
9838;SDS011;4958;48.150;11.506;2023-02-15T09:27:42;13.77;;;11.67;;
9838;SDS011;4958;48.150;11.506;2023-02-15T09:30:08;13.23;;;11.83;;
9838;SDS011;4958;48.150;11.506;2023-02-15T09:32:35;14.90;;;12.83;;
9838;SDS011;4958;48.150;11.506;2023-02-15T09:35:05;13.57;;;11.17;;
9838;SDS011;4958;48.150;11.506;2023-02-15T09:37:31;12.83;;;11.53;;
9838;SDS011;4958;48.150;11.506;2023-02-15T09:39:58;13.13;;;11.43;;
9838;SDS011;4958;48.150;11.506;2023-02-15T09:42:35;12.40;;;11.10;;
9838;SDS011;4958;48.150;11.506;2023-02-15T09:45:23;12.53;;;11.23;;
9838;SDS011;4958;48.150;11.506;2023-02-15T09:48:01;12.23;;;10.93;;
9838;SDS011;4958;48.150;11.506;2023-02-15T09:50:53;14.73;;;11.93;;
9838;SDS011;4958;48.150;11.506;2023-02-15T09:53:32;13.33;;;11.87;;
9838;SDS011;4958;48.150;11.506;2023-02-15T09:56:22;14.03;;;11.53;;
9838;SDS011;4958;48.150;11.506;2023-02-15T09:58:59;14.10;;;11.27;;
9838;SDS011;4958;48.150;11.506;2023-02-15T10:01:37;12.53;;;10.73;;
9838;SDS011;4958;48.150;11.506;2023-02-15T10:04:19;14.93;;;12.10;;
9838;SDS011;4958;48.150;11.506;2023-02-15T10:07:00;14.07;;;11.47;;
9838;SDS011;4958;48.150;11.506;2023-02-15T10:09:41;12.83;;;11.40;;
9838;SDS011;4958;48.150;11.506;2023-02-15T10:12:28;12.90;;;11.33;;
9838;SDS011;4958;48.150;11.506;2023-02-15T10:15:18;16.00;;;11.77;;
9838;SDS011;4958;48.150;11.506;2023-02-15T10:18:03;13.20;;;11.80;;
9838;SDS011;4958;48.150;11.506;2023-02-15T10:20:41;19.07;;;12.10;;
9838;SDS011;4958;48.150;11.506;2023-02-15T10:23:21;19.97;;;13.20;;
9838;SDS011;4958;48.150;11.506;2023-02-15T10:25:59;15.57;;;13.37;;
9838;SDS011;4958;48.150;11.506;2023-02-15T10:28:38;22.33;;;13.87;;
9838;SDS011;4958;48.150;11.506;2023-02-15T10:31:14;16.87;;;13.57;;
9838;SDS011;4958;48.150;11.506;2023-02-15T10:33:48;16.80;;;14.00;;
9838;SDS011;4958;48.150;11.506;2023-02-15T10:36:28;15.57;;;13.20;;
9838;SDS011;4958;48.150;11.506;2023-02-15T10:39:10;17.73;;;13.30;;
9838;SDS011;4958;48.150;11.506;2023-02-15T10:41:46;16.73;;;13.17;;
9838;SDS011;4958;48.150;11.506;2023-02-15T10:44:23;16.73;;;13.37;;
9838;SDS011;4958;48.150;11.506;2023-02-15T10:47:06;15.70;;;13.43;;
9838;SDS011;4958;48.150;11.506;2023-02-15T10:49:59;15.57;;;13.67;;
9838;SDS011;4958;48.150;11.506;2023-02-15T10:52:42;16.30;;;14.17;;
9838;SDS011;4958;48.150;11.506;2023-02-15T10:55:24;18.50;;;13.97;;
9838;SDS011;4958;48.150;11.506;2023-02-15T10:58:00;18.83;;;14.13;;
9838;SDS011;4958;48.150;11.506;2023-02-15T11:00:39;15.43;;;13.67;;
9838;SDS011;4958;48.150;11.506;2023-02-15T11:03:16;14.70;;;13.20;;
9838;SDS011;4958;48.150;11.506;2023-02-15T11:05:53;17.37;;;14.27;;
9838;SDS011;4958;48.150;11.506;2023-02-15T11:08:29;16.83;;;14.07;;
9838;SDS011;4958;48.150;11.506;2023-02-15T11:11:01;21.33;;;14.73;;
9838;SDS011;4958;48.150;11.506;2023-02-15T11:13:32;18.47;;;14.67;;
9838;SDS011;4958;48.150;11.506;2023-02-15T11:16:04;17.73;;;14.83;;
9838;SDS011;4958;48.150;11.506;2023-02-15T11:18:34;17.30;;;14.40;;
9838;SDS011;4958;48.150;11.506;2023-02-15T11:21:06;18.50;;;13.87;;
9838;SDS011;4958;48.150;11.506;2023-02-15T11:23:39;18.57;;;14.80;;
9838;SDS011;4958;48.150;11.506;2023-02-15T11:26:11;20.90;;;18.47;;
9838;SDS011;4958;48.150;11.506;2023-02-15T11:28:43;24.23;;;19.83;;
9838;SDS011;4958;48.150;11.506;2023-02-15T11:31:15;25.80;;;16.70;;
9838;SDS011;4958;48.150;11.506;2023-02-15T11:33:45;18.13;;;16.17;;
9838;SDS011;4958;48.150;11.506;2023-02-15T11:36:17;17.10;;;15.23;;
9838;SDS011;4958;48.150;11.506;2023-02-15T11:38:51;19.30;;;14.73;;
9838;SDS011;4958;48.150;11.506;2023-02-15T11:41:24;18.50;;;14.60;;
9838;SDS011;4958;48.150;11.506;2023-02-15T11:43:56;16.97;;;15.27;;
9838;SDS011;4958;48.150;11.506;2023-02-15T11:46:26;19.20;;;15.53;;
9838;SDS011;4958;48.150;11.506;2023-02-15T11:48:54;19.53;;;15.13;;
9838;SDS011;4958;48.150;11.506;2023-02-15T11:51:21;24.53;;;14.67;;
9838;SDS011;4958;48.150;11.506;2023-02-15T11:53:49;28.83;;;15.30;;
9838;SDS011;4958;48.150;11.506;2023-02-15T11:56:16;22.90;;;20.20;;
9838;SDS011;4958;48.150;11.506;2023-02-15T11:58:45;26.53;;;20.33;;
9838;SDS011;4958;48.150;11.506;2023-02-15T12:01:17;22.23;;;17.47;;
9838;SDS011;4958;48.150;11.506;2023-02-15T12:03:48;18.63;;;16.17;;
9838;SDS011;4958;48.150;11.506;2023-02-15T12:06:21;21.77;;;16.20;;
9838;SDS011;4958;48.150;11.506;2023-02-15T12:08:52;18.57;;;16.57;;
9838;SDS011;4958;48.150;11.506;2023-02-15T12:11:25;18.70;;;15.87;;
9838;SDS011;4958;48.150;11.506;2023-02-15T12:13:56;18.00;;;16.13;;
9838;SDS011;4958;48.150;11.506;2023-02-15T12:16:24;17.97;;;15.87;;
9838;SDS011;4958;48.150;11.506;2023-02-15T12:18:53;18.40;;;16.50;;
9838;SDS011;4958;48.150;11.506;2023-02-15T12:21:27;18.37;;;16.20;;
9838;SDS011;4958;48.150;11.506;2023-02-15T12:23:57;18.90;;;16.53;;
9838;SDS011;4958;48.150;11.506;2023-02-15T12:26:29;19.07;;;16.07;;
9838;SDS011;4958;48.150;11.506;2023-02-15T12:28:58;20.17;;;16.33;;
9838;SDS011;4958;48.150;11.506;2023-02-15T12:31:28;20.20;;;17.07;;
9838;SDS011;4958;48.150;11.506;2023-02-15T12:34:00;22.10;;;16.53;;
9838;SDS011;4958;48.150;11.506;2023-02-15T12:36:40;16.70;;;14.93;;
9838;SDS011;4958;48.150;11.506;2023-02-15T12:39:21;17.53;;;15.57;;
9838;SDS011;4958;48.150;11.506;2023-02-15T12:41:58;19.77;;;16.20;;
9838;SDS011;4958;48.150;11.506;2023-02-15T12:44:27;17.67;;;15.70;;
9838;SDS011;4958;48.150;11.506;2023-02-15T12:46:56;17.93;;;16.03;;
9838;SDS011;4958;48.150;11.506;2023-02-15T12:49:24;20.70;;;18.57;;
9838;SDS011;4958;48.150;11.506;2023-02-15T12:51:53;23.83;;;18.60;;
9838;SDS011;4958;48.150;11.506;2023-02-15T12:54:28;23.47;;;17.63;;
9838;SDS011;4958;48.150;11.506;2023-02-15T12:57:12;18.07;;;16.23;;
9838;SDS011;4958;48.150;11.506;2023-02-15T12:59:48;20.73;;;15.93;;
9838;SDS011;4958;48.150;11.506;2023-02-15T13:02:19;18.20;;;16.30;;
9838;SDS011;4958;48.150;11.506;2023-02-15T13:04:48;23.73;;;15.93;;
9838;SDS011;4958;48.150;11.506;2023-02-15T13:07:17;20.07;;;15.90;;
9838;SDS011;4958;48.150;11.506;2023-02-15T13:09:43;20.10;;;15.50;;
9838;SDS011;4958;48.150;11.506;2023-02-15T13:12:11;18.53;;;16.17;;
9838;SDS011;4958;48.150;11.506;2023-02-15T13:14:44;19.47;;;16.80;;
9838;SDS011;4958;48.150;11.506;2023-02-15T13:17:12;19.97;;;15.60;;
9838;SDS011;4958;48.150;11.506;2023-02-15T13:19:43;19.27;;;15.53;;
9838;SDS011;4958;48.150;11.506;2023-02-15T13:22:13;19.73;;;16.93;;
9838;SDS011;4958;48.150;11.506;2023-02-15T13:24:43;18.93;;;16.30;;
9838;SDS011;4958;48.150;11.506;2023-02-15T13:27:14;17.33;;;14.90;;
9838;SDS011;4958;48.150;11.506;2023-02-15T13:29:43;17.23;;;15.40;;
9838;SDS011;4958;48.150;11.506;2023-02-15T13:32:17;17.47;;;14.30;;
9838;SDS011;4958;48.150;11.506;2023-02-15T13:34:51;17.97;;;15.77;;
9838;SDS011;4958;48.150;11.506;2023-02-15T13:37:21;16.80;;;15.00;;
9838;SDS011;4958;48.150;11.506;2023-02-15T13:40:06;17.87;;;15.07;;
9838;SDS011;4958;48.150;11.506;2023-02-15T13:42:39;18.20;;;15.17;;
9838;SDS011;4958;48.150;11.506;2023-02-15T13:45:10;18.53;;;15.13;;
9838;SDS011;4958;48.150;11.506;2023-02-15T13:47:49;16.73;;;14.73;;
9838;SDS011;4958;48.150;11.506;2023-02-15T13:50:36;18.63;;;15.07;;
9838;SDS011;4958;48.150;11.506;2023-02-15T13:53:17;20.00;;;16.30;;
9838;SDS011;4958;48.150;11.506;2023-02-15T13:55:57;20.77;;;15.50;;
9838;SDS011;4958;48.150;11.506;2023-02-15T13:58:36;20.43;;;14.90;;
9838;SDS011;4958;48.150;11.506;2023-02-15T14:01:22;17.67;;;15.10;;
9838;SDS011;4958;48.150;11.506;2023-02-15T14:04:10;23.57;;;14.93;;
9838;SDS011;4958;48.150;11.506;2023-02-15T14:06:51;22.30;;;14.40;;
9838;SDS011;4958;48.150;11.506;2023-02-15T14:09:35;17.40;;;14.17;;
9838;SDS011;4958;48.150;11.506;2023-02-15T14:12:24;17.73;;;14.10;;
9838;SDS011;4958;48.150;11.506;2023-02-15T14:17:53;17.03;;;13.13;;
9838;SDS011;4958;48.150;11.506;2023-02-15T14:20:32;17.87;;;14.10;;
9838;SDS011;4958;48.150;11.506;2023-02-15T14:23:11;18.43;;;13.73;;
9838;SDS011;4958;48.150;11.506;2023-02-15T14:25:53;14.93;;;13.20;;
9838;SDS011;4958;48.150;11.506;2023-02-15T14:28:25;14.83;;;13.13;;
9838;SDS011;4958;48.150;11.506;2023-02-15T14:30:56;16.27;;;13.80;;
9838;SDS011;4958;48.150;11.506;2023-02-15T14:33:33;15.40;;;13.90;;
9838;SDS011;4958;48.150;11.506;2023-02-15T14:36:03;16.50;;;13.17;;
9838;SDS011;4958;48.150;11.506;2023-02-15T14:38:44;17.90;;;13.40;;
9838;SDS011;4958;48.150;11.506;2023-02-15T14:41:27;17.67;;;13.43;;
9838;SDS011;4958;48.150;11.506;2023-02-15T14:44:04;19.13;;;13.37;;
9838;SDS011;4958;48.150;11.506;2023-02-15T14:46:41;17.67;;;12.77;;
9838;SDS011;4958;48.150;11.506;2023-02-15T14:49:12;17.37;;;13.87;;
9838;SDS011;4958;48.150;11.506;2023-02-15T14:51:54;19.73;;;13.10;;
9838;SDS011;4958;48.150;11.506;2023-02-15T14:57:27;14.30;;;12.87;;
9838;SDS011;4958;48.150;11.506;2023-02-15T14:59:58;14.33;;;12.33;;
9838;SDS011;4958;48.150;11.506;2023-02-15T15:02:39;21.13;;;13.40;;
9838;SDS011;4958;48.150;11.506;2023-02-15T15:05:09;15.30;;;13.70;;
9838;SDS011;4958;48.150;11.506;2023-02-15T15:07:41;16.47;;;12.83;;
9838;SDS011;4958;48.150;11.506;2023-02-15T15:10:32;16.53;;;12.90;;
9838;SDS011;4958;48.150;11.506;2023-02-15T15:16:24;17.93;;;12.47;;